sensor_id;sensor_type;location;lat;lon;timestamp;P1;durP1;ratioP1;P2;durP2;ratioP2
39322;SDS011;25036;53.638;10.134;2022-12-11T00:00:45;4.10;;;3.70;;
39322;SDS011;25036;53.638;10.134;2022-12-11T00:01:45;3.97;;;3.37;;
39322;SDS011;25036;53.638;10.134;2022-12-11T00:02:45;4.40;;;3.73;;
39322;SDS011;25036;53.638;10.134;2022-12-11T00:03:46;4.85;;;4.35;;
39322;SDS011;25036;53.638;10.134;2022-12-11T00:04:46;4.32;;;3.92;;
39322;SDS011;25036;53.638;10.134;2022-12-11T00:05:46;4.53;;;4.13;;
39322;SDS011;25036;53.638;10.134;2022-12-11T00:06:46;5.15;;;4.43;;
39322;SDS011;25036;53.638;10.134;2022-12-11T00:07:49;4.63;;;4.18;;
39322;SDS011;25036;53.638;10.134;2022-12-11T00:08:50;5.07;;;4.40;;
39322;SDS011;25036;53.638;10.134;2022-12-11T00:09:50;4.22;;;3.83;;
39322;SDS011;25036;53.638;10.134;2022-12-11T00:10:50;4.33;;;3.93;;
39322;SDS011;25036;53.638;10.134;2022-12-11T00:11:50;4.53;;;4.13;;
39322;SDS011;25036;53.638;10.134;2022-12-11T00:12:50;5.50;;;4.73;;
39322;SDS011;25036;53.638;10.134;2022-12-11T00:13:50;4.90;;;4.30;;
39322;SDS011;25036;53.638;10.134;2022-12-11T00:14:51;4.33;;;3.93;;
39322;SDS011;25036;53.638;10.134;2022-12-11T00:15:51;4.35;;;3.97;;
39322;SDS011;25036;53.638;10.134;2022-12-11T00:16:51;4.53;;;4.13;;
39322;SDS011;25036;53.638;10.134;2022-12-11T00:17:51;5.40;;;4.10;;
39322;SDS011;25036;53.638;10.134;2022-12-11T00:18:51;5.87;;;4.60;;
39322;SDS011;25036;53.638;10.134;2022-12-11T00:19:51;4.78;;;4.22;;
39322;SDS011;25036;53.638;10.134;2022-12-11T00:20:52;5.43;;;4.10;;
39322;SDS011;25036;53.638;10.134;2022-12-11T00:21:52;4.97;;;4.03;;
39322;SDS011;25036;53.638;10.134;2022-12-11T00:22:52;4.97;;;3.90;;
39322;SDS011;25036;53.638;10.134;2022-12-11T00:23:52;4.10;;;3.67;;
39322;SDS011;25036;53.638;10.134;2022-12-11T00:24:52;4.77;;;3.93;;
39322;SDS011;25036;53.638;10.134;2022-12-11T00:25:52;4.80;;;4.20;;
39322;SDS011;25036;53.638;10.134;2022-12-11T00:26:52;5.17;;;3.97;;
39322;SDS011;25036;53.638;10.134;2022-12-11T00:27:53;4.37;;;3.73;;
39322;SDS011;25036;53.638;10.134;2022-12-11T00:28:53;4.73;;;4.07;;
39322;SDS011;25036;53.638;10.134;2022-12-11T00:29:54;4.55;;;4.15;;
39322;SDS011;25036;53.638;10.134;2022-12-11T00:30:54;4.63;;;3.93;;
39322;SDS011;25036;53.638;10.134;2022-12-11T00:31:54;4.55;;;4.05;;
39322;SDS011;25036;53.638;10.134;2022-12-11T00:32:54;4.30;;;3.90;;
39322;SDS011;25036;53.638;10.134;2022-12-11T00:33:54;4.37;;;3.97;;
39322;SDS011;25036;53.638;10.134;2022-12-11T00:34:54;4.53;;;4.13;;
39322;SDS011;25036;53.638;10.134;2022-12-11T00:35:55;4.40;;;3.90;;
39322;SDS011;25036;53.638;10.134;2022-12-11T00:36:55;4.00;;;3.57;;
39322;SDS011;25036;53.638;10.134;2022-12-11T00:37:55;4.10;;;3.80;;
39322;SDS011;25036;53.638;10.134;2022-12-11T00:38:55;4.50;;;4.10;;
39322;SDS011;25036;53.638;10.134;2022-12-11T00:39:55;4.40;;;4.00;;
39322;SDS011;25036;53.638;10.134;2022-12-11T00:40:58;4.00;;;3.60;;
39322;SDS011;25036;53.638;10.134;2022-12-11T00:41:58;4.22;;;3.50;;
39322;SDS011;25036;53.638;10.134;2022-12-11T00:42:58;4.18;;;3.47;;
39322;SDS011;25036;53.638;10.134;2022-12-11T00:43:59;4.80;;;3.80;;
39322;SDS011;25036;53.638;10.134;2022-12-11T00:44:59;4.40;;;3.97;;
39322;SDS011;25036;53.638;10.134;2022-12-11T00:45:59;4.00;;;3.60;;
39322;SDS011;25036;53.638;10.134;2022-12-11T00:46:59;4.07;;;3.70;;
39322;SDS011;25036;53.638;10.134;2022-12-11T00:47:59;4.80;;;4.30;;
39322;SDS011;25036;53.638;10.134;2022-12-11T00:48:59;5.40;;;4.10;;
39322;SDS011;25036;53.638;10.134;2022-12-11T00:49:59;4.20;;;3.80;;
39322;SDS011;25036;53.638;10.134;2022-12-11T00:51:00;4.73;;;4.07;;
39322;SDS011;25036;53.638;10.134;2022-12-11T00:52:00;4.57;;;3.90;;
39322;SDS011;25036;53.638;10.134;2022-12-11T00:53:00;5.17;;;4.50;;
39322;SDS011;25036;53.638;10.134;2022-12-11T00:54:00;4.03;;;3.63;;
39322;SDS011;25036;53.638;10.134;2022-12-11T00:55:00;4.38;;;3.97;;
39322;SDS011;25036;53.638;10.134;2022-12-11T00:56:00;4.33;;;3.90;;
39322;SDS011;25036;53.638;10.134;2022-12-11T00:57:01;4.17;;;3.77;;
39322;SDS011;25036;53.638;10.134;2022-12-11T00:58:01;4.72;;;4.10;;
39322;SDS011;25036;53.638;10.134;2022-12-11T00:59:01;4.30;;;3.90;;
39322;SDS011;25036;53.638;10.134;2022-12-11T01:00:03;4.47;;;3.95;;
39322;SDS011;25036;53.638;10.134;2022-12-11T01:01:06;4.75;;;4.22;;
39322;SDS011;25036;53.638;10.134;2022-12-11T01:02:07;5.35;;;4.32;;
39322;SDS011;25036;53.638;10.134;2022-12-11T01:03:07;4.63;;;4.23;;
39322;SDS011;25036;53.638;10.134;2022-12-11T01:04:07;5.68;;;4.22;;
39322;SDS011;25036;53.638;10.134;2022-12-11T01:05:08;4.88;;;4.10;;
39322;SDS011;25036;53.638;10.134;2022-12-11T01:06:11;5.00;;;4.50;;
39322;SDS011;25036;53.638;10.134;2022-12-11T01:07:12;4.80;;;4.40;;
39322;SDS011;25036;53.638;10.134;2022-12-11T01:08:12;4.60;;;4.20;;
39322;SDS011;25036;53.638;10.134;2022-12-11T01:09:12;4.50;;;4.10;;
39322;SDS011;25036;53.638;10.134;2022-12-11T01:10:31;5.30;;;4.80;;
39322;SDS011;25036;53.638;10.134;2022-12-11T01:11:32;4.25;;;3.85;;
39322;SDS011;25036;53.638;10.134;2022-12-11T01:12:32;5.10;;;4.43;;
39322;SDS011;25036;53.638;10.134;2022-12-11T01:13:32;4.70;;;4.27;;
39322;SDS011;25036;53.638;10.134;2022-12-11T01:14:32;4.30;;;3.90;;
39322;SDS011;25036;53.638;10.134;2022-12-11T01:15:33;4.40;;;3.97;;
39322;SDS011;25036;53.638;10.134;2022-12-11T01:16:34;5.28;;;4.20;;
39322;SDS011;25036;53.638;10.134;2022-12-11T01:17:34;4.85;;;4.22;;
39322;SDS011;25036;53.638;10.134;2022-12-11T01:18:34;5.30;;;4.80;;
39322;SDS011;25036;53.638;10.134;2022-12-11T01:19:35;5.35;;;4.45;;
39322;SDS011;25036;53.638;10.134;2022-12-11T01:20:36;4.88;;;4.38;;
39322;SDS011;25036;53.638;10.134;2022-12-11T01:21:36;5.65;;;4.68;;
39322;SDS011;25036;53.638;10.134;2022-12-11T01:22:37;5.40;;;4.47;;
39322;SDS011;25036;53.638;10.134;2022-12-11T01:23:37;5.88;;;4.72;;
39322;SDS011;25036;53.638;10.134;2022-12-11T01:24:37;5.40;;;4.20;;
39322;SDS011;25036;53.638;10.134;2022-12-11T01:25:38;4.18;;;3.78;;
39322;SDS011;25036;53.638;10.134;2022-12-11T01:26:38;4.90;;;4.40;;
39322;SDS011;25036;53.638;10.134;2022-12-11T01:27:38;4.75;;;4.25;;
39322;SDS011;25036;53.638;10.134;2022-12-11T01:28:40;5.32;;;3.92;;
39322;SDS011;25036;53.638;10.134;2022-12-11T01:29:41;5.05;;;4.55;;
39322;SDS011;25036;53.638;10.134;2022-12-11T01:30:41;6.10;;;4.70;;
39322;SDS011;25036;53.638;10.134;2022-12-11T01:31:42;4.97;;;4.55;;
39322;SDS011;25036;53.638;10.134;2022-12-11T01:32:42;4.93;;;4.47;;
39322;SDS011;25036;53.638;10.134;2022-12-11T01:33:42;5.63;;;4.80;;
39322;SDS011;25036;53.638;10.134;2022-12-11T01:34:42;4.53;;;4.13;;
39322;SDS011;25036;53.638;10.134;2022-12-11T01:35:42;4.77;;;4.20;;
39322;SDS011;25036;53.638;10.134;2022-12-11T01:36:42;5.33;;;4.70;;
39322;SDS011;25036;53.638;10.134;2022-12-11T01:37:43;4.97;;;4.30;;
39322;SDS011;25036;53.638;10.134;2022-12-11T01:38:43;5.07;;;4.57;;
39322;SDS011;25036;53.638;10.134;2022-12-11T01:39:44;5.00;;;4.50;;
39322;SDS011;25036;53.638;10.134;2022-12-11T01:40:47;5.10;;;4.57;;
39322;SDS011;25036;53.638;10.134;2022-12-11T01:41:48;4.60;;;4.20;;
39322;SDS011;25036;53.638;10.134;2022-12-11T01:42:48;5.47;;;4.30;;
39322;SDS011;25036;53.638;10.134;2022-12-11T01:46:21;5.45;;;4.90;;
39322;SDS011;25036;53.638;10.134;2022-12-11T01:47:21;5.83;;;5.13;;
39322;SDS011;25036;53.638;10.134;2022-12-11T01:48:27;5.47;;;4.97;;
39322;SDS011;25036;53.638;10.134;2022-12-11T01:49:28;5.40;;;4.90;;
39322;SDS011;25036;53.638;10.134;2022-12-11T01:50:29;5.93;;;5.33;;
39322;SDS011;25036;53.638;10.134;2022-12-11T01:51:30;5.95;;;5.22;;
39322;SDS011;25036;53.638;10.134;2022-12-11T01:52:31;5.80;;;5.20;;
39322;SDS011;25036;53.638;10.134;2022-12-11T01:53:32;6.72;;;5.43;;
39322;SDS011;25036;53.638;10.134;2022-12-11T01:54:33;6.15;;;5.55;;
39322;SDS011;25036;53.638;10.134;2022-12-11T01:55:33;5.95;;;5.35;;
39322;SDS011;25036;53.638;10.134;2022-12-11T01:56:34;6.32;;;5.72;;
39322;SDS011;25036;53.638;10.134;2022-12-11T01:57:36;5.93;;;5.10;;
39322;SDS011;25036;53.638;10.134;2022-12-11T01:58:45;6.22;;;5.55;;
39322;SDS011;25036;53.638;10.134;2022-12-11T01:59:46;7.43;;;5.65;;
39322;SDS011;25036;53.638;10.134;2022-12-11T02:00:46;6.63;;;5.93;;
39322;SDS011;25036;53.638;10.134;2022-12-11T02:01:48;6.28;;;5.50;;
39322;SDS011;25036;53.638;10.134;2022-12-11T02:02:50;6.45;;;5.75;;
39322;SDS011;25036;53.638;10.134;2022-12-11T02:03:50;6.60;;;6.00;;
39322;SDS011;25036;53.638;10.134;2022-12-11T02:04:51;5.63;;;5.13;;
39322;SDS011;25036;53.638;10.134;2022-12-11T02:05:52;6.05;;;5.20;;
39322;SDS011;25036;53.638;10.134;2022-12-11T02:06:52;6.40;;;5.68;;
39322;SDS011;25036;53.638;10.134;2022-12-11T02:07:53;6.60;;;5.68;;
39322;SDS011;25036;53.638;10.134;2022-12-11T02:08:55;6.35;;;5.63;;
39322;SDS011;25036;53.638;10.134;2022-12-11T02:09:55;6.60;;;5.87;;
39322;SDS011;25036;53.638;10.134;2022-12-11T02:11:05;6.93;;;6.22;;
39322;SDS011;25036;53.638;10.134;2022-12-11T02:13:17;6.13;;;5.40;;
39322;SDS011;25036;53.638;10.134;2022-12-11T02:15:36;7.05;;;6.35;;
39322;SDS011;25036;53.638;10.134;2022-12-11T02:16:41;6.95;;;6.25;;
39322;SDS011;25036;53.638;10.134;2022-12-11T02:17:47;6.22;;;5.63;;
39322;SDS011;25036;53.638;10.134;2022-12-11T02:18:52;8.77;;;5.80;;
39322;SDS011;25036;53.638;10.134;2022-12-11T02:20:01;6.65;;;5.95;;
39322;SDS011;25036;53.638;10.134;2022-12-11T02:22:05;7.17;;;6.47;;
39322;SDS011;25036;53.638;10.134;2022-12-11T02:24:37;7.63;;;6.10;;
39322;SDS011;25036;53.638;10.134;2022-12-11T02:29:12;6.82;;;5.90;;
39322;SDS011;25036;53.638;10.134;2022-12-11T02:30:15;7.32;;;6.55;;
39322;SDS011;25036;53.638;10.134;2022-12-11T02:32:31;7.65;;;6.88;;
39322;SDS011;25036;53.638;10.134;2022-12-11T02:33:34;7.10;;;6.40;;
39322;SDS011;25036;53.638;10.134;2022-12-11T02:34:40;7.10;;;6.40;;
39322;SDS011;25036;53.638;10.134;2022-12-11T02:35:42;7.63;;;6.93;;
39322;SDS011;25036;53.638;10.134;2022-12-11T02:36:44;7.45;;;6.75;;
39322;SDS011;25036;53.638;10.134;2022-12-11T02:37:46;8.23;;;6.55;;
39322;SDS011;25036;53.638;10.134;2022-12-11T02:38:47;8.05;;;7.25;;
39322;SDS011;25036;53.638;10.134;2022-12-11T02:39:50;7.72;;;6.88;;
39322;SDS011;25036;53.638;10.134;2022-12-11T02:40:52;7.63;;;6.82;;
39322;SDS011;25036;53.638;10.134;2022-12-11T02:41:54;8.13;;;7.28;;
39322;SDS011;25036;53.638;10.134;2022-12-11T02:42:55;7.70;;;6.90;;
39322;SDS011;25036;53.638;10.134;2022-12-11T02:43:56;7.93;;;7.13;;
39322;SDS011;25036;53.638;10.134;2022-12-11T02:44:58;9.40;;;6.88;;
39322;SDS011;25036;53.638;10.134;2022-12-11T02:45:59;7.28;;;6.47;;
39322;SDS011;25036;53.638;10.134;2022-12-11T02:47:02;7.80;;;6.78;;
39322;SDS011;25036;53.638;10.134;2022-12-11T02:48:03;8.13;;;7.32;;
39322;SDS011;25036;53.638;10.134;2022-12-11T02:49:04;8.55;;;7.03;;
39322;SDS011;25036;53.638;10.134;2022-12-11T02:50:10;8.25;;;7.38;;
39322;SDS011;25036;53.638;10.134;2022-12-11T02:51:11;7.85;;;7.05;;
39322;SDS011;25036;53.638;10.134;2022-12-11T02:52:13;7.57;;;6.88;;
39322;SDS011;25036;53.638;10.134;2022-12-11T02:53:15;8.38;;;7.50;;
39322;SDS011;25036;53.638;10.134;2022-12-11T02:54:20;8.18;;;7.38;;
39322;SDS011;25036;53.638;10.134;2022-12-11T02:55:22;7.70;;;6.72;;
39322;SDS011;25036;53.638;10.134;2022-12-11T02:56:24;7.45;;;6.50;;
39322;SDS011;25036;53.638;10.134;2022-12-11T02:57:30;8.27;;;7.15;;
39322;SDS011;25036;53.638;10.134;2022-12-11T02:58:32;6.35;;;5.75;;
39322;SDS011;25036;53.638;10.134;2022-12-11T02:59:37;7.60;;;6.22;;
39322;SDS011;25036;53.638;10.134;2022-12-11T03:00:38;6.95;;;6.25;;
39322;SDS011;25036;53.638;10.134;2022-12-11T03:01:38;7.60;;;6.63;;
39322;SDS011;25036;53.638;10.134;2022-12-11T03:02:39;7.40;;;6.57;;
39322;SDS011;25036;53.638;10.134;2022-12-11T03:03:39;7.25;;;6.55;;
39322;SDS011;25036;53.638;10.134;2022-12-11T03:04:40;7.53;;;6.80;;
39322;SDS011;25036;53.638;10.134;2022-12-11T03:05:41;7.68;;;6.28;;
39322;SDS011;25036;53.638;10.134;2022-12-11T03:06:43;7.28;;;6.45;;
39322;SDS011;25036;53.638;10.134;2022-12-11T03:07:44;8.20;;;6.68;;
39322;SDS011;25036;53.638;10.134;2022-12-11T03:08:44;7.25;;;6.55;;
39322;SDS011;25036;53.638;10.134;2022-12-11T03:09:45;7.97;;;7.18;;
39322;SDS011;25036;53.638;10.134;2022-12-11T03:10:46;7.90;;;7.10;;
39322;SDS011;25036;53.638;10.134;2022-12-11T03:11:46;7.50;;;6.70;;
39322;SDS011;25036;53.638;10.134;2022-12-11T03:12:48;6.97;;;6.27;;
39322;SDS011;25036;53.638;10.134;2022-12-11T03:13:49;7.22;;;6.53;;
39322;SDS011;25036;53.638;10.134;2022-12-11T03:14:49;7.45;;;6.70;;
39322;SDS011;25036;53.638;10.134;2022-12-11T03:15:59;7.78;;;6.85;;
39322;SDS011;25036;53.638;10.134;2022-12-11T03:17:13;7.43;;;6.72;;
39322;SDS011;25036;53.638;10.134;2022-12-11T03:18:18;9.50;;;7.13;;
39322;SDS011;25036;53.638;10.134;2022-12-11T03:19:23;7.32;;;6.63;;
39322;SDS011;25036;53.638;10.134;2022-12-11T03:21:32;7.47;;;6.78;;
39322;SDS011;25036;53.638;10.134;2022-12-11T03:22:54;8.48;;;7.28;;
39322;SDS011;25036;53.638;10.134;2022-12-11T03:24:18;7.47;;;6.78;;
39322;SDS011;25036;53.638;10.134;2022-12-11T03:25:21;7.72;;;6.93;;
39322;SDS011;25036;53.638;10.134;2022-12-11T03:26:22;8.65;;;7.35;;
39322;SDS011;25036;53.638;10.134;2022-12-11T03:27:27;7.40;;;6.70;;
39322;SDS011;25036;53.638;10.134;2022-12-11T03:28:29;8.13;;;7.32;;
39322;SDS011;25036;53.638;10.134;2022-12-11T03:29:33;7.68;;;6.88;;
39322;SDS011;25036;53.638;10.134;2022-12-11T03:30:34;7.93;;;7.13;;
39322;SDS011;25036;53.638;10.134;2022-12-11T03:31:39;7.75;;;6.90;;
39322;SDS011;25036;53.638;10.134;2022-12-11T03:32:52;7.75;;;6.95;;
39322;SDS011;25036;53.638;10.134;2022-12-11T03:33:53;8.80;;;6.63;;
39322;SDS011;25036;53.638;10.134;2022-12-11T03:35:05;8.15;;;7.22;;
39322;SDS011;25036;53.638;10.134;2022-12-11T03:36:09;7.82;;;6.78;;
39322;SDS011;25036;53.638;10.134;2022-12-11T03:37:09;8.20;;;7.30;;
39322;SDS011;25036;53.638;10.134;2022-12-11T03:38:57;7.03;;;6.32;;
39322;SDS011;25036;53.638;10.134;2022-12-11T03:40:32;9.17;;;6.80;;
39322;SDS011;25036;53.638;10.134;2022-12-11T03:41:33;7.38;;;6.68;;
39322;SDS011;25036;53.638;10.134;2022-12-11T03:42:34;7.43;;;6.70;;
39322;SDS011;25036;53.638;10.134;2022-12-11T03:43:35;7.82;;;7.03;;
39322;SDS011;25036;53.638;10.134;2022-12-11T03:44:36;7.05;;;6.20;;
39322;SDS011;25036;53.638;10.134;2022-12-11T03:45:36;7.45;;;6.75;;
39322;SDS011;25036;53.638;10.134;2022-12-11T03:46:38;7.50;;;6.65;;
39322;SDS011;25036;53.638;10.134;2022-12-11T03:47:38;7.70;;;6.90;;
39322;SDS011;25036;53.638;10.134;2022-12-11T03:48:40;6.82;;;6.13;;
39322;SDS011;25036;53.638;10.134;2022-12-11T03:49:41;7.05;;;6.35;;
39322;SDS011;25036;53.638;10.134;2022-12-11T03:50:42;7.07;;;6.38;;
39322;SDS011;25036;53.638;10.134;2022-12-11T03:51:43;7.18;;;6.47;;
39322;SDS011;25036;53.638;10.134;2022-12-11T03:52:45;7.13;;;6.43;;
39322;SDS011;25036;53.638;10.134;2022-12-11T03:53:46;7.28;;;6.57;;
39322;SDS011;25036;53.638;10.134;2022-12-11T03:54:47;6.60;;;5.97;;
39322;SDS011;25036;53.638;10.134;2022-12-11T03:55:48;6.75;;;6.05;;
39322;SDS011;25036;53.638;10.134;2022-12-11T03:56:50;6.75;;;6.05;;
39322;SDS011;25036;53.638;10.134;2022-12-11T03:57:50;6.90;;;6.20;;
39322;SDS011;25036;53.638;10.134;2022-12-11T03:58:51;6.90;;;6.20;;
39322;SDS011;25036;53.638;10.134;2022-12-11T03:59:51;7.03;;;5.97;;
39322;SDS011;25036;53.638;10.134;2022-12-11T04:00:51;7.50;;;6.40;;
39322;SDS011;25036;53.638;10.134;2022-12-11T04:01:51;6.93;;;5.90;;
39322;SDS011;25036;53.638;10.134;2022-12-11T04:02:51;7.00;;;6.00;;
39322;SDS011;25036;53.638;10.134;2022-12-11T04:04:10;7.57;;;6.32;;
39322;SDS011;25036;53.638;10.134;2022-12-11T04:05:10;6.83;;;6.07;;
39322;SDS011;25036;53.638;10.134;2022-12-11T04:06:10;7.10;;;6.00;;
39322;SDS011;25036;53.638;10.134;2022-12-11T04:07:11;7.60;;;6.80;;
39322;SDS011;25036;53.638;10.134;2022-12-11T04:08:11;7.85;;;6.85;;
39322;SDS011;25036;53.638;10.134;2022-12-11T04:09:11;7.20;;;6.30;;
39322;SDS011;25036;53.638;10.134;2022-12-11T04:10:11;7.10;;;6.40;;
39322;SDS011;25036;53.638;10.134;2022-12-11T04:11:11;8.53;;;6.53;;
39322;SDS011;25036;53.638;10.134;2022-12-11T04:12:30;6.90;;;6.20;;
39322;SDS011;25036;53.638;10.134;2022-12-11T04:13:30;7.53;;;6.60;;
39322;SDS011;25036;53.638;10.134;2022-12-11T04:14:31;6.50;;;5.90;;
39322;SDS011;25036;53.638;10.134;2022-12-11T04:15:49;7.28;;;6.32;;
39322;SDS011;25036;53.638;10.134;2022-12-11T04:16:50;6.87;;;6.17;;
39322;SDS011;25036;53.638;10.134;2022-12-11T04:17:50;7.05;;;6.35;;
39322;SDS011;25036;53.638;10.134;2022-12-11T04:19:09;7.57;;;6.47;;
39322;SDS011;25036;53.638;10.134;2022-12-11T04:20:27;8.60;;;6.82;;
39322;SDS011;25036;53.638;10.134;2022-12-11T04:21:46;7.57;;;6.60;;
39322;SDS011;25036;53.638;10.134;2022-12-11T04:23:06;7.15;;;6.40;;
39322;SDS011;25036;53.638;10.134;2022-12-11T04:24:29;7.13;;;6.40;;
39322;SDS011;25036;53.638;10.134;2022-12-11T04:25:29;7.20;;;6.50;;
39322;SDS011;25036;53.638;10.134;2022-12-11T04:26:29;7.20;;;6.50;;
39322;SDS011;25036;53.638;10.134;2022-12-11T04:27:29;6.73;;;6.10;;
39322;SDS011;25036;53.638;10.134;2022-12-11T04:28:48;7.07;;;6.28;;
39322;SDS011;25036;53.638;10.134;2022-12-11T04:29:48;6.95;;;6.25;;
39322;SDS011;25036;53.638;10.134;2022-12-11T04:30:48;7.70;;;6.80;;
39322;SDS011;25036;53.638;10.134;2022-12-11T04:31:48;7.50;;;6.35;;
39322;SDS011;25036;53.638;10.134;2022-12-11T04:32:49;7.40;;;6.40;;
39322;SDS011;25036;53.638;10.134;2022-12-11T04:33:50;8.15;;;7.00;;
39322;SDS011;25036;53.638;10.134;2022-12-11T04:34:50;7.65;;;6.85;;
39322;SDS011;25036;53.638;10.134;2022-12-11T04:35:50;7.13;;;6.43;;
39322;SDS011;25036;53.638;10.134;2022-12-11T04:36:50;7.77;;;6.97;;
39322;SDS011;25036;53.638;10.134;2022-12-11T04:37:50;7.90;;;6.78;;
39322;SDS011;25036;53.638;10.134;2022-12-11T04:38:51;7.60;;;6.90;;
39322;SDS011;25036;53.638;10.134;2022-12-11T04:39:51;7.23;;;6.50;;
39322;SDS011;25036;53.638;10.134;2022-12-11T04:40:57;7.90;;;7.10;;
39322;SDS011;25036;53.638;10.134;2022-12-11T04:41:58;8.02;;;6.57;;
39322;SDS011;25036;53.638;10.134;2022-12-11T04:42:58;7.60;;;6.80;;
39322;SDS011;25036;53.638;10.134;2022-12-11T04:43:58;7.20;;;6.50;;
39322;SDS011;25036;53.638;10.134;2022-12-11T04:44:58;8.63;;;6.25;;
39322;SDS011;25036;53.638;10.134;2022-12-11T04:46:15;8.83;;;6.90;;
39322;SDS011;25036;53.638;10.134;2022-12-11T04:47:15;7.18;;;6.47;;
39322;SDS011;25036;53.638;10.134;2022-12-11T04:48:16;7.00;;;6.30;;
39322;SDS011;25036;53.638;10.134;2022-12-11T04:49:16;7.77;;;6.97;;
39322;SDS011;25036;53.638;10.134;2022-12-11T04:50:17;7.30;;;6.53;;
39322;SDS011;25036;53.638;10.134;2022-12-11T04:51:17;8.18;;;7.35;;
39322;SDS011;25036;53.638;10.134;2022-12-11T04:52:18;7.85;;;6.88;;
39322;SDS011;25036;53.638;10.134;2022-12-11T04:53:18;7.50;;;6.65;;
39322;SDS011;25036;53.638;10.134;2022-12-11T04:54:18;7.03;;;6.33;;
39322;SDS011;25036;53.638;10.134;2022-12-11T04:55:18;7.93;;;7.13;;
39322;SDS011;25036;53.638;10.134;2022-12-11T04:56:18;8.27;;;7.47;;
39322;SDS011;25036;53.638;10.134;2022-12-11T04:57:18;8.00;;;7.07;;
39322;SDS011;25036;53.638;10.134;2022-12-11T04:58:20;7.90;;;7.07;;
39322;SDS011;25036;53.638;10.134;2022-12-11T04:59:20;8.50;;;7.60;;
39322;SDS011;25036;53.638;10.134;2022-12-11T05:00:21;8.70;;;7.80;;
39322;SDS011;25036;53.638;10.134;2022-12-11T05:01:21;7.78;;;6.97;;
39322;SDS011;25036;53.638;10.134;2022-12-11T05:02:21;8.02;;;7.22;;
39322;SDS011;25036;53.638;10.134;2022-12-11T05:03:22;8.27;;;6.93;;
39322;SDS011;25036;53.638;10.134;2022-12-11T05:04:22;8.07;;;7.28;;
39322;SDS011;25036;53.638;10.134;2022-12-11T05:05:23;7.38;;;6.68;;
39322;SDS011;25036;53.638;10.134;2022-12-11T05:06:23;8.00;;;7.20;;
39322;SDS011;25036;53.638;10.134;2022-12-11T05:07:23;8.00;;;6.80;;
39322;SDS011;25036;53.638;10.134;2022-12-11T05:08:23;7.53;;;6.73;;
39322;SDS011;25036;53.638;10.134;2022-12-11T05:09:23;8.53;;;7.57;;
39322;SDS011;25036;53.638;10.134;2022-12-11T05:10:24;8.32;;;7.20;;
39322;SDS011;25036;53.638;10.134;2022-12-11T05:11:25;7.57;;;6.77;;
39322;SDS011;25036;53.638;10.134;2022-12-11T05:12:25;7.73;;;6.93;;
39322;SDS011;25036;53.638;10.134;2022-12-11T05:13:25;7.70;;;6.90;;
39322;SDS011;25036;53.638;10.134;2022-12-11T05:14:25;6.78;;;6.15;;
39322;SDS011;25036;53.638;10.134;2022-12-11T05:15:26;8.57;;;6.97;;
39322;SDS011;25036;53.638;10.134;2022-12-11T05:16:26;7.73;;;6.90;;
39322;SDS011;25036;53.638;10.134;2022-12-11T05:17:26;8.07;;;7.10;;
39322;SDS011;25036;53.638;10.134;2022-12-11T05:18:26;7.90;;;7.10;;
39322;SDS011;25036;53.638;10.134;2022-12-11T05:19:27;8.43;;;6.73;;
39322;SDS011;25036;53.638;10.134;2022-12-11T05:20:27;8.63;;;7.27;;
39322;SDS011;25036;53.638;10.134;2022-12-11T05:21:27;8.37;;;7.47;;
39322;SDS011;25036;53.638;10.134;2022-12-11T05:22:28;7.68;;;6.88;;
39322;SDS011;25036;53.638;10.134;2022-12-11T05:23:29;8.55;;;7.70;;
39322;SDS011;25036;53.638;10.134;2022-12-11T05:24:29;9.02;;;8.13;;
39322;SDS011;25036;53.638;10.134;2022-12-11T05:25:29;8.15;;;7.35;;
39322;SDS011;25036;53.638;10.134;2022-12-11T05:26:30;8.20;;;7.13;;
39322;SDS011;25036;53.638;10.134;2022-12-11T05:27:30;8.82;;;7.65;;
39322;SDS011;25036;53.638;10.134;2022-12-11T05:28:31;8.20;;;7.27;;
39322;SDS011;25036;53.638;10.134;2022-12-11T05:29:31;8.85;;;7.90;;
39322;SDS011;25036;53.638;10.134;2022-12-11T05:30:31;8.73;;;7.83;;
39322;SDS011;25036;53.638;10.134;2022-12-11T05:31:31;9.40;;;7.73;;
39322;SDS011;25036;53.638;10.134;2022-12-11T05:32:31;8.25;;;7.45;;
39322;SDS011;25036;53.638;10.134;2022-12-11T05:33:32;9.18;;;7.78;;
39322;SDS011;25036;53.638;10.134;2022-12-11T05:34:33;7.82;;;6.88;;
39322;SDS011;25036;53.638;10.134;2022-12-11T05:35:33;8.57;;;6.97;;
39322;SDS011;25036;53.638;10.134;2022-12-11T05:36:33;8.27;;;7.35;;
39322;SDS011;25036;53.638;10.134;2022-12-11T05:37:33;8.38;;;7.07;;
39322;SDS011;25036;53.638;10.134;2022-12-11T05:38:34;9.60;;;7.80;;
39322;SDS011;25036;53.638;10.134;2022-12-11T05:39:34;8.45;;;7.50;;
39322;SDS011;25036;53.638;10.134;2022-12-11T05:40:34;8.27;;;7.10;;
39322;SDS011;25036;53.638;10.134;2022-12-11T05:41:34;8.00;;;7.00;;
39322;SDS011;25036;53.638;10.134;2022-12-11T05:42:34;8.95;;;7.03;;
39322;SDS011;25036;53.638;10.134;2022-12-11T05:43:35;8.30;;;7.40;;
39322;SDS011;25036;53.638;10.134;2022-12-11T05:44:35;7.63;;;6.85;;
39322;SDS011;25036;53.638;10.134;2022-12-11T05:45:35;7.93;;;7.13;;
39322;SDS011;25036;53.638;10.134;2022-12-11T05:46:35;8.40;;;7.57;;
39322;SDS011;25036;53.638;10.134;2022-12-11T05:47:35;8.50;;;7.60;;
39322;SDS011;25036;53.638;10.134;2022-12-11T05:48:36;8.10;;;7.17;;
39322;SDS011;25036;53.638;10.134;2022-12-11T05:49:36;8.18;;;7.15;;
39322;SDS011;25036;53.638;10.134;2022-12-11T05:50:36;8.05;;;6.97;;
39322;SDS011;25036;53.638;10.134;2022-12-11T05:51:36;8.37;;;7.47;;
39322;SDS011;25036;53.638;10.134;2022-12-11T05:52:38;8.63;;;7.25;;
39322;SDS011;25036;53.638;10.134;2022-12-11T05:53:39;8.70;;;7.53;;
39322;SDS011;25036;53.638;10.134;2022-12-11T05:54:39;7.95;;;6.95;;
39322;SDS011;25036;53.638;10.134;2022-12-11T05:55:39;9.10;;;8.17;;
39322;SDS011;25036;53.638;10.134;2022-12-11T05:56:39;8.10;;;7.30;;
39322;SDS011;25036;53.638;10.134;2022-12-11T05:57:40;9.40;;;7.72;;
39322;SDS011;25036;53.638;10.134;2022-12-11T05:58:40;8.23;;;7.43;;
39322;SDS011;25036;53.638;10.134;2022-12-11T05:59:40;8.35;;;7.53;;
39322;SDS011;25036;53.638;10.134;2022-12-11T06:00:41;8.60;;;7.77;;
39322;SDS011;25036;53.638;10.134;2022-12-11T06:01:41;8.82;;;7.88;;
39322;SDS011;25036;53.638;10.134;2022-12-11T06:02:41;7.78;;;6.97;;
39322;SDS011;25036;53.638;10.134;2022-12-11T06:03:42;8.43;;;7.33;;
39322;SDS011;25036;53.638;10.134;2022-12-11T06:04:42;7.93;;;6.90;;
39322;SDS011;25036;53.638;10.134;2022-12-11T06:05:42;7.77;;;6.90;;
39322;SDS011;25036;53.638;10.134;2022-12-11T06:06:42;8.30;;;7.50;;
39322;SDS011;25036;53.638;10.134;2022-12-11T06:07:45;8.13;;;7.18;;
39322;SDS011;25036;53.638;10.134;2022-12-11T06:08:45;8.10;;;7.30;;
39322;SDS011;25036;53.638;10.134;2022-12-11T06:09:48;9.02;;;7.60;;
39322;SDS011;25036;53.638;10.134;2022-12-11T06:10:48;8.07;;;7.17;;
39322;SDS011;25036;53.638;10.134;2022-12-11T06:11:48;9.80;;;7.05;;
39322;SDS011;25036;53.638;10.134;2022-12-11T06:12:49;8.10;;;7.28;;
39322;SDS011;25036;53.638;10.134;2022-12-11T06:13:49;8.00;;;6.70;;
39322;SDS011;25036;53.638;10.134;2022-12-11T06:14:49;7.82;;;7.03;;
39322;SDS011;25036;53.638;10.134;2022-12-11T06:15:49;10.37;;;7.27;;
39322;SDS011;25036;53.638;10.134;2022-12-11T06:16:49;8.27;;;7.40;;
39322;SDS011;25036;53.638;10.134;2022-12-11T06:17:50;8.60;;;7.75;;
39322;SDS011;25036;53.638;10.134;2022-12-11T06:18:50;8.43;;;7.53;;
39322;SDS011;25036;53.638;10.134;2022-12-11T06:19:50;8.75;;;7.82;;
39322;SDS011;25036;53.638;10.134;2022-12-11T06:20:50;9.33;;;8.33;;